Airfield :
LOGIN :

Register | Disclaimer

   EN    FR    IT 

 










Legend :    VFR   Marginal VFR   IFR   Intensive IFR   Very Intensive IFR
Visi :
Ceiling :
>= 8 km
>= 3000ft
5 to 8 km
1000 to 3000 ft
1500m to 5 km
500 to 1000 ft
800 to 1500m
200 to 500 ft
< 800m
< 200 ft
Symbols :   Thunderstorms  Fog  Heavy snow  Heavy precipitations  Wind > 20 kt
SIGMETs :     Misc.  Thunderstorms  Icing  Turbulence  Mountain Waves  Volcanic Ashes







- Airport Elevation : 1504 ft
- IATA code : PNA


LEPP - Noain Pamplona

CURRENT METAR :
  • 281230Z 31006KT 250V010 9999 FEW030 28/16 Q1018

EXPIRED METARs :
  • 281200Z 28005KT 170V330 9999 FEW030 27/16 Q1018
  • 281130Z 30006KT 240V050 9999 FEW030 27/17 Q1018
  • 281100Z 31004KT 9999 FEW026 27/17 Q1018
  • 281030Z 31004KT 230V030 9999 FEW026 26/17 Q1018
  • 281000Z 33003KT 9999 FEW026 25/16 Q1019

TAF TAF LEPP
Valid from the 28 at 09:00 until the 29 at 09:00 UTC


280800Z 2809/2909 34006KT 9999 FEW030 TX30/2815Z TN16/2905Z
TEMPO 2814/2821 35016KT
No reported NOTAMs for that airfield.



MET'MAP, your aeronautical weather chart ! - Copyright ORBIFLY December 2007 - Disclaimer

ORBIFLY MET'MAP TEAM :

Programming & Development : Alexandra Zaïnal
Concept & Development : Baudouin d'Aumeries
Co-Development & Prog : Marc-Olivier Méhu
Technical & hardware support : Manuel Goepfert

Contact : metmap@orbifly.com




SOURCES & CREDITS :

   NOAA